sensor_id;sensor_type;location;lat;lon;timestamp;temperature;humidity
54930;DHT22;40833;53.238;6.576;2023-02-27T00:00:17;0.50;99.90
54930;DHT22;40833;53.238;6.576;2023-02-27T00:02:44;0.60;99.90
54930;DHT22;40833;53.238;6.576;2023-02-27T00:05:11;0.60;99.90
54930;DHT22;40833;53.238;6.576;2023-02-27T00:07:36;0.60;99.90
54930;DHT22;40833;53.238;6.576;2023-02-27T00:10:03;0.70;99.90
54930;DHT22;40833;53.238;6.576;2023-02-27T00:12:30;0.20;99.90
54930;DHT22;40833;53.238;6.576;2023-02-27T00:15:05;0.60;99.90
54930;DHT22;40833;53.238;6.576;2023-02-27T00:17:31;0.60;99.90
54930;DHT22;40833;53.238;6.576;2023-02-27T00:19:57;1.90;99.90
54930;DHT22;40833;53.238;6.576;2023-02-27T00:22:23;2.50;99.90
54930;DHT22;40833;53.238;6.576;2023-02-27T00:24:48;0.60;99.90
54930;DHT22;40833;53.238;6.576;2023-02-27T00:27:14;0.60;99.90
54930;DHT22;40833;53.238;6.576;2023-02-27T00:29:40;2.20;99.90
54930;DHT22;40833;53.238;6.576;2023-02-27T00:32:05;0.60;99.90
54930;DHT22;40833;53.238;6.576;2023-02-27T00:34:31;0.50;99.90
54930;DHT22;40833;53.238;6.576;2023-02-27T00:36:56;0.50;99.90
54930;DHT22;40833;53.238;6.576;2023-02-27T00:39:22;1.60;99.90
54930;DHT22;40833;53.238;6.576;2023-02-27T00:41:48;0.40;99.90
54930;DHT22;40833;53.238;6.576;2023-02-27T00:44:13;0.30;99.90
54930;DHT22;40833;53.238;6.576;2023-02-27T00:46:39;0.20;99.90
54930;DHT22;40833;53.238;6.576;2023-02-27T00:49:05;1.20;99.90
54930;DHT22;40833;53.238;6.576;2023-02-27T00:51:30;0.00;99.90
54930;DHT22;40833;53.238;6.576;2023-02-27T00:53:56;-0.10;99.90
54930;DHT22;40833;53.238;6.576;2023-02-27T00:56:22;0.50;99.90
54930;DHT22;40833;53.238;6.576;2023-02-27T00:58:47;0.90;99.90
54930;DHT22;40833;53.238;6.576;2023-02-27T01:01:13;1.80;99.90
54930;DHT22;40833;53.238;6.576;2023-02-27T01:03:39;0.10;99.90
54930;DHT22;40833;53.238;6.576;2023-02-27T01:06:05;-0.40;99.90
54930;DHT22;40833;53.238;6.576;2023-02-27T01:08:31;-0.30;99.90
54930;DHT22;40833;53.238;6.576;2023-02-27T01:10:56;-0.30;99.90
54930;DHT22;40833;53.238;6.576;2023-02-27T01:13:22;-0.30;99.90
54930;DHT22;40833;53.238;6.576;2023-02-27T01:15:48;0.70;99.90
54930;DHT22;40833;53.238;6.576;2023-02-27T01:18:14;-0.30;99.90
54930;DHT22;40833;53.238;6.576;2023-02-27T01:20:39;-0.30;99.90
54930;DHT22;40833;53.238;6.576;2023-02-27T01:23:05;-0.30;99.90
54930;DHT22;40833;53.238;6.576;2023-02-27T01:25:31;2.50;99.90
54930;DHT22;40833;53.238;6.576;2023-02-27T01:27:57;-0.30;99.90
54930;DHT22;40833;53.238;6.576;2023-02-27T01:30:22;-0.30;99.90
54930;DHT22;40833;53.238;6.576;2023-02-27T01:32:48;-0.30;99.90
54930;DHT22;40833;53.238;6.576;2023-02-27T01:35:14;-0.30;99.90
54930;DHT22;40833;53.238;6.576;2023-02-27T01:37:39;-0.30;99.90
54930;DHT22;40833;53.238;6.576;2023-02-27T01:40:06;1.20;99.90
54930;DHT22;40833;53.238;6.576;2023-02-27T01:42:33;-0.30;99.90
54930;DHT22;40833;53.238;6.576;2023-02-27T01:47:39;-0.30;99.90
54930;DHT22;40833;53.238;6.576;2023-02-27T01:50:07;-0.30;99.90
54930;DHT22;40833;53.238;6.576;2023-02-27T01:52:35;-0.30;99.90
54930;DHT22;40833;53.238;6.576;2023-02-27T01:55:02;1.50;99.90
54930;DHT22;40833;53.238;6.576;2023-02-27T01:59:54;-0.20;99.90
54930;DHT22;40833;53.238;6.576;2023-02-27T02:02:27;-0.20;99.90
54930;DHT22;40833;53.238;6.576;2023-02-27T02:04:55;-0.20;99.90
54930;DHT22;40833;53.238;6.576;2023-02-27T02:07:21;-0.20;99.90
54930;DHT22;40833;53.238;6.576;2023-02-27T02:09:52;-0.10;99.90
54930;DHT22;40833;53.238;6.576;2023-02-27T02:12:23;-0.20;99.90
54930;DHT22;40833;53.238;6.576;2023-02-27T02:14:50;-0.20;99.90
54930;DHT22;40833;53.238;6.576;2023-02-27T02:21:01;-0.20;99.90
54930;DHT22;40833;53.238;6.576;2023-02-27T02:34:39;-0.10;99.90
54930;DHT22;40833;53.238;6.576;2023-02-27T02:40:26;-0.10;99.90
54930;DHT22;40833;53.238;6.576;2023-02-27T02:43:23;-0.20;99.90
54930;DHT22;40833;53.238;6.576;2023-02-27T02:48:46;-0.20;99.90
54930;DHT22;40833;53.238;6.576;2023-02-27T02:51:33;-0.10;99.90
54930;DHT22;40833;53.238;6.576;2023-02-27T02:54:05;-0.10;99.90
54930;DHT22;40833;53.238;6.576;2023-02-27T02:56:45;-0.10;99.90
54930;DHT22;40833;53.238;6.576;2023-02-27T03:02:00;-0.10;99.90
54930;DHT22;40833;53.238;6.576;2023-02-27T03:04:31;-0.10;99.90
54930;DHT22;40833;53.238;6.576;2023-02-27T03:07:04;-0.10;99.90
54930;DHT22;40833;53.238;6.576;2023-02-27T03:09:47;-0.20;99.90
54930;DHT22;40833;53.238;6.576;2023-02-27T03:12:18;-0.30;99.90
54930;DHT22;40833;53.238;6.576;2023-02-27T03:15:00;1.40;99.90
54930;DHT22;40833;53.238;6.576;2023-02-27T03:17:41;1.90;99.90
54930;DHT22;40833;53.238;6.576;2023-02-27T03:20:56;-0.50;99.90
54930;DHT22;40833;53.238;6.576;2023-02-27T03:23:05;-0.60;99.90
54930;DHT22;40833;53.238;6.576;2023-02-27T03:25:34;-0.70;99.90
54930;DHT22;40833;53.238;6.576;2023-02-27T03:28:13;-0.70;99.90
54930;DHT22;40833;53.238;6.576;2023-02-27T03:31:05;1.30;99.90
54930;DHT22;40833;53.238;6.576;2023-02-27T03:33:55;-0.80;99.90
54930;DHT22;40833;53.238;6.576;2023-02-27T03:39:38;-1.00;99.90
54930;DHT22;40833;53.238;6.576;2023-02-27T03:47:45;-1.00;99.90
54930;DHT22;40833;53.238;6.576;2023-02-27T03:50:11;1.30;99.90
54930;DHT22;40833;53.238;6.576;2023-02-27T03:52:37;-1.20;99.90
54930;DHT22;40833;53.238;6.576;2023-02-27T03:57:33;-1.30;99.90
54930;DHT22;40833;53.238;6.576;2023-02-27T03:59:59;-1.30;99.90
54930;DHT22;40833;53.238;6.576;2023-02-27T04:02:26;-0.50;99.90
54930;DHT22;40833;53.238;6.576;2023-02-27T04:04:52;-1.40;99.90
54930;DHT22;40833;53.238;6.576;2023-02-27T04:07:37;-1.10;99.90
54930;DHT22;40833;53.238;6.576;2023-02-27T04:18:51;-1.60;99.90
54930;DHT22;40833;53.238;6.576;2023-02-27T04:24:01;-1.60;99.90
54930;DHT22;40833;53.238;6.576;2023-02-27T04:26:45;1.20;99.90
54930;DHT22;40833;53.238;6.576;2023-02-27T04:32:37;-1.70;99.90
54930;DHT22;40833;53.238;6.576;2023-02-27T04:35:24;-1.80;99.90
54930;DHT22;40833;53.238;6.576;2023-02-27T04:37:59;-1.80;99.90
54930;DHT22;40833;53.238;6.576;2023-02-27T04:40:44;0.60;99.90
54930;DHT22;40833;53.238;6.576;2023-02-27T04:43:12;-1.90;99.90
54930;DHT22;40833;53.238;6.576;2023-02-27T04:45:40;-0.90;99.90
54930;DHT22;40833;53.238;6.576;2023-02-27T04:48:15;-1.50;99.90
54930;DHT22;40833;53.238;6.576;2023-02-27T04:50:51;-1.90;99.90
54930;DHT22;40833;53.238;6.576;2023-02-27T04:53:25;-1.60;99.90
54930;DHT22;40833;53.238;6.576;2023-02-27T04:56:04;-2.00;99.90
54930;DHT22;40833;53.238;6.576;2023-02-27T04:58:47;0.10;99.90
54930;DHT22;40833;53.238;6.576;2023-02-27T05:04:15;-2.00;99.90
54930;DHT22;40833;53.238;6.576;2023-02-27T05:06:44;-2.00;99.90
54930;DHT22;40833;53.238;6.576;2023-02-27T05:11:59;-2.00;99.90
54930;DHT22;40833;53.238;6.576;2023-02-27T05:14:39;-2.00;99.90
54930;DHT22;40833;53.238;6.576;2023-02-27T05:17:12;-2.10;99.90
54930;DHT22;40833;53.238;6.576;2023-02-27T05:19:40;-2.10;99.90
54930;DHT22;40833;53.238;6.576;2023-02-27T05:22:12;-2.10;99.90
54930;DHT22;40833;53.238;6.576;2023-02-27T05:25:02;-2.10;99.90
54930;DHT22;40833;53.238;6.576;2023-02-27T05:27:58;-2.10;99.90
54930;DHT22;40833;53.238;6.576;2023-02-27T05:30:37;-2.20;99.90
54930;DHT22;40833;53.238;6.576;2023-02-27T05:33:14;-2.20;99.90
54930;DHT22;40833;53.238;6.576;2023-02-27T05:35:49;-2.30;99.90
54930;DHT22;40833;53.238;6.576;2023-02-27T05:40:49;-0.80;99.90
54930;DHT22;40833;53.238;6.576;2023-02-27T05:43:40;-0.20;99.90
54930;DHT22;40833;53.238;6.576;2023-02-27T05:46:12;-2.30;99.90
54930;DHT22;40833;53.238;6.576;2023-02-27T05:48:43;-2.30;99.90
54930;DHT22;40833;53.238;6.576;2023-02-27T05:51:12;0.50;99.90
54930;DHT22;40833;53.238;6.576;2023-02-27T05:53:43;-2.30;99.90
54930;DHT22;40833;53.238;6.576;2023-02-27T05:56:13;0.20;99.90
54930;DHT22;40833;53.238;6.576;2023-02-27T05:58:54;-2.40;99.90
54930;DHT22;40833;53.238;6.576;2023-02-27T06:01:23;-2.40;99.90
54930;DHT22;40833;53.238;6.576;2023-02-27T06:03:49;-2.40;99.90
54930;DHT22;40833;53.238;6.576;2023-02-27T06:06:16;-2.40;99.90
54930;DHT22;40833;53.238;6.576;2023-02-27T06:08:43;-2.20;99.90
54930;DHT22;40833;53.238;6.576;2023-02-27T06:11:09;-2.40;99.90
54930;DHT22;40833;53.238;6.576;2023-02-27T06:13:35;-2.40;99.90
54930;DHT22;40833;53.238;6.576;2023-02-27T06:16:01;-2.40;99.90
54930;DHT22;40833;53.238;6.576;2023-02-27T06:18:26;-2.40;99.90
54930;DHT22;40833;53.238;6.576;2023-02-27T06:20:52;-2.50;99.90
54930;DHT22;40833;53.238;6.576;2023-02-27T06:23:18;-2.50;99.90
54930;DHT22;40833;53.238;6.576;2023-02-27T06:25:44;-1.60;99.90
54930;DHT22;40833;53.238;6.576;2023-02-27T06:28:11;-0.40;99.90
54930;DHT22;40833;53.238;6.576;2023-02-27T06:30:37;-2.50;99.90
54930;DHT22;40833;53.238;6.576;2023-02-27T06:33:03;-2.50;99.90
54930;DHT22;40833;53.238;6.576;2023-02-27T06:35:29;-2.50;99.90
54930;DHT22;40833;53.238;6.576;2023-02-27T06:37:55;-2.40;99.90
54930;DHT22;40833;53.238;6.576;2023-02-27T06:40:21;-2.50;99.90
54930;DHT22;40833;53.238;6.576;2023-02-27T06:42:47;-0.30;99.90
54930;DHT22;40833;53.238;6.576;2023-02-27T06:45:14;-1.40;99.90
54930;DHT22;40833;53.238;6.576;2023-02-27T06:50:08;-2.20;99.90
54930;DHT22;40833;53.238;6.576;2023-02-27T06:52:36;-2.20;99.90
54930;DHT22;40833;53.238;6.576;2023-02-27T06:55:03;-2.10;99.90
54930;DHT22;40833;53.238;6.576;2023-02-27T06:57:29;-2.00;99.90
54930;DHT22;40833;53.238;6.576;2023-02-27T06:59:55;-1.90;99.90
54930;DHT22;40833;53.238;6.576;2023-02-27T07:02:21;-0.50;99.90
54930;DHT22;40833;53.238;6.576;2023-02-27T07:04:48;-1.70;99.90
54930;DHT22;40833;53.238;6.576;2023-02-27T07:07:14;-1.60;99.90
54930;DHT22;40833;53.238;6.576;2023-02-27T07:09:39;-1.50;99.90
54930;DHT22;40833;53.238;6.576;2023-02-27T07:12:05;-0.70;99.90
54930;DHT22;40833;53.238;6.576;2023-02-27T07:14:32;-1.30;99.90
54930;DHT22;40833;53.238;6.576;2023-02-27T07:16:58;-1.20;99.90
54930;DHT22;40833;53.238;6.576;2023-02-27T07:19:27;-1.20;99.90
54930;DHT22;40833;53.238;6.576;2023-02-27T07:21:53;1.70;99.90
54930;DHT22;40833;53.238;6.576;2023-02-27T07:24:19;-1.00;99.90
54930;DHT22;40833;53.238;6.576;2023-02-27T07:26:44;-1.00;99.90
54930;DHT22;40833;53.238;6.576;2023-02-27T07:29:11;-0.90;99.90
54930;DHT22;40833;53.238;6.576;2023-02-27T07:31:36;-0.80;99.90
54930;DHT22;40833;53.238;6.576;2023-02-27T07:34:02;1.70;99.90
54930;DHT22;40833;53.238;6.576;2023-02-27T07:36:28;-0.70;99.90
54930;DHT22;40833;53.238;6.576;2023-02-27T07:38:55;-0.50;99.90
54930;DHT22;40833;53.238;6.576;2023-02-27T07:41:22;1.00;99.90
54930;DHT22;40833;53.238;6.576;2023-02-27T07:43:48;-0.50;99.90
54930;DHT22;40833;53.238;6.576;2023-02-27T07:46:14;2.40;99.90
54930;DHT22;40833;53.238;6.576;2023-02-27T07:48:39;-0.40;99.90
54930;DHT22;40833;53.238;6.576;2023-02-27T07:51:05;1.10;99.90
54930;DHT22;40833;53.238;6.576;2023-02-27T07:53:31;-0.40;99.90
54930;DHT22;40833;53.238;6.576;2023-02-27T07:55:57;-0.40;99.90
54930;DHT22;40833;53.238;6.576;2023-02-27T07:58:22;0.80;99.90
54930;DHT22;40833;53.238;6.576;2023-02-27T08:00:48;-0.30;99.90
54930;DHT22;40833;53.238;6.576;2023-02-27T08:03:14;1.30;99.90
54930;DHT22;40833;53.238;6.576;2023-02-27T08:05:39;0.40;99.90
54930;DHT22;40833;53.238;6.576;2023-02-27T08:08:05;0.00;99.90
54930;DHT22;40833;53.238;6.576;2023-02-27T08:10:31;0.10;99.90
54930;DHT22;40833;53.238;6.576;2023-02-27T08:12:57;0.50;99.90
54930;DHT22;40833;53.238;6.576;2023-02-27T08:15:22;0.40;99.90
54930;DHT22;40833;53.238;6.576;2023-02-27T08:17:49;2.60;99.90
54930;DHT22;40833;53.238;6.576;2023-02-27T08:20:15;2.00;99.90
54930;DHT22;40833;53.238;6.576;2023-02-27T08:22:41;0.70;99.90
54930;DHT22;40833;53.238;6.576;2023-02-27T08:25:09;1.80;99.90
54930;DHT22;40833;53.238;6.576;2023-02-27T08:27:38;0.90;99.90
54930;DHT22;40833;53.238;6.576;2023-02-27T08:30:05;1.30;99.90
54930;DHT22;40833;53.238;6.576;2023-02-27T08:32:32;1.10;99.90
54930;DHT22;40833;53.238;6.576;2023-02-27T08:34:58;2.90;99.90
54930;DHT22;40833;53.238;6.576;2023-02-27T08:37:24;1.30;99.90
54930;DHT22;40833;53.238;6.576;2023-02-27T08:39:49;1.30;99.90
54930;DHT22;40833;53.238;6.576;2023-02-27T08:42:15;2.90;99.90
54930;DHT22;40833;53.238;6.576;2023-02-27T08:44:41;3.70;99.90
54930;DHT22;40833;53.238;6.576;2023-02-27T08:47:07;1.60;99.90
54930;DHT22;40833;53.238;6.576;2023-02-27T08:49:32;2.90;99.90
54930;DHT22;40833;53.238;6.576;2023-02-27T08:51:58;1.80;99.90
54930;DHT22;40833;53.238;6.576;2023-02-27T08:54:24;4.20;99.90
54930;DHT22;40833;53.238;6.576;2023-02-27T08:56:49;2.00;99.90
54930;DHT22;40833;53.238;6.576;2023-02-27T08:59:15;3.80;99.90
54930;DHT22;40833;53.238;6.576;2023-02-27T09:01:41;2.40;99.90
54930;DHT22;40833;53.238;6.576;2023-02-27T09:04:08;2.30;99.90
54930;DHT22;40833;53.238;6.576;2023-02-27T09:06:34;2.60;99.90
54930;DHT22;40833;53.238;6.576;2023-02-27T09:09:00;2.50;99.90
54930;DHT22;40833;53.238;6.576;2023-02-27T09:11:26;2.70;99.90
54930;DHT22;40833;53.238;6.576;2023-02-27T09:13:53;2.80;99.90
54930;DHT22;40833;53.238;6.576;2023-02-27T09:16:20;3.00;99.90
54930;DHT22;40833;53.238;6.576;2023-02-27T09:18:46;3.10;99.90
54930;DHT22;40833;53.238;6.576;2023-02-27T09:21:13;4.50;99.90
54930;DHT22;40833;53.238;6.576;2023-02-27T09:23:39;3.30;99.90
54930;DHT22;40833;53.238;6.576;2023-02-27T09:26:05;3.60;99.90
54930;DHT22;40833;53.238;6.576;2023-02-27T09:28:31;3.40;99.90
54930;DHT22;40833;53.238;6.576;2023-02-27T09:31:01;3.50;99.90
54930;DHT22;40833;53.238;6.576;2023-02-27T09:33:27;3.60;99.90
54930;DHT22;40833;53.238;6.576;2023-02-27T09:35:53;3.70;99.90
54930;DHT22;40833;53.238;6.576;2023-02-27T09:38:19;3.80;99.90
54930;DHT22;40833;53.238;6.576;2023-02-27T09:40:46;4.30;99.90
54930;DHT22;40833;53.238;6.576;2023-02-27T09:43:17;5.00;99.90
54930;DHT22;40833;53.238;6.576;2023-02-27T09:45:46;5.40;99.90
54930;DHT22;40833;53.238;6.576;2023-02-27T09:48:39;4.50;99.90
54930;DHT22;40833;53.238;6.576;2023-02-27T09:51:07;4.30;99.90
54930;DHT22;40833;53.238;6.576;2023-02-27T09:53:38;4.40;99.90
54930;DHT22;40833;53.238;6.576;2023-02-27T09:56:08;4.20;99.90
54930;DHT22;40833;53.238;6.576;2023-02-27T09:59:25;4.70;99.90
54930;DHT22;40833;53.238;6.576;2023-02-27T10:07:14;5.00;99.90
54930;DHT22;40833;53.238;6.576;2023-02-27T10:15:42;5.10;99.90
54930;DHT22;40833;53.238;6.576;2023-02-27T10:18:15;5.10;99.90
54930;DHT22;40833;53.238;6.576;2023-02-27T10:21:09;5.10;99.90
54930;DHT22;40833;53.238;6.576;2023-02-27T10:23:40;5.20;99.90
54930;DHT22;40833;53.238;6.576;2023-02-27T10:26:17;5.40;99.90
54930;DHT22;40833;53.238;6.576;2023-02-27T10:28:43;5.80;99.90
54930;DHT22;40833;53.238;6.576;2023-02-27T10:31:16;5.60;99.90
54930;DHT22;40833;53.238;6.576;2023-02-27T10:33:45;5.30;99.90
54930;DHT22;40833;53.238;6.576;2023-02-27T10:36:14;6.50;99.90
54930;DHT22;40833;53.238;6.576;2023-02-27T10:38:46;5.20;99.90
54930;DHT22;40833;53.238;6.576;2023-02-27T10:41:16;5.40;99.90
54930;DHT22;40833;53.238;6.576;2023-02-27T10:43:43;5.20;99.90
54930;DHT22;40833;53.238;6.576;2023-02-27T10:46:14;5.30;99.90
54930;DHT22;40833;53.238;6.576;2023-02-27T10:48:41;5.40;99.90
54930;DHT22;40833;53.238;6.576;2023-02-27T10:51:20;5.40;99.90
54930;DHT22;40833;53.238;6.576;2023-02-27T10:53:46;5.40;99.90
54930;DHT22;40833;53.238;6.576;2023-02-27T10:56:16;5.50;99.90
54930;DHT22;40833;53.238;6.576;2023-02-27T10:58:43;5.50;99.90
54930;DHT22;40833;53.238;6.576;2023-02-27T11:01:10;5.50;99.90
54930;DHT22;40833;53.238;6.576;2023-02-27T11:03:38;5.90;99.90
54930;DHT22;40833;53.238;6.576;2023-02-27T11:06:25;5.50;99.90
54930;DHT22;40833;53.238;6.576;2023-02-27T11:09:15;5.50;99.90
54930;DHT22;40833;53.238;6.576;2023-02-27T11:11:42;5.80;99.90
54930;DHT22;40833;53.238;6.576;2023-02-27T11:14:28;6.00;99.90
54930;DHT22;40833;53.238;6.576;2023-02-27T11:16:57;6.00;99.90
54930;DHT22;40833;53.238;6.576;2023-02-27T11:19:35;6.10;99.90
54930;DHT22;40833;53.238;6.576;2023-02-27T11:22:13;6.20;99.90
54930;DHT22;40833;53.238;6.576;2023-02-27T11:24:39;6.20;99.90
54930;DHT22;40833;53.238;6.576;2023-02-27T11:32:47;6.50;99.90
54930;DHT22;40833;53.238;6.576;2023-02-27T11:37:50;6.60;99.90
54930;DHT22;40833;53.238;6.576;2023-02-27T11:40:18;6.70;99.90
54930;DHT22;40833;53.238;6.576;2023-02-27T11:42:50;7.10;99.90
54930;DHT22;40833;53.238;6.576;2023-02-27T11:47:50;6.80;99.90
54930;DHT22;40833;53.238;6.576;2023-02-27T11:50:37;6.70;99.90
54930;DHT22;40833;53.238;6.576;2023-02-27T11:53:32;6.80;99.90
54930;DHT22;40833;53.238;6.576;2023-02-27T11:56:02;6.80;99.90
54930;DHT22;40833;53.238;6.576;2023-02-27T11:58:36;6.90;99.90
54930;DHT22;40833;53.238;6.576;2023-02-27T12:01:26;7.30;99.90
54930;DHT22;40833;53.238;6.576;2023-02-27T12:03:59;7.10;99.90
54930;DHT22;40833;53.238;6.576;2023-02-27T12:06:41;7.10;99.90
54930;DHT22;40833;53.238;6.576;2023-02-27T12:12:00;7.20;99.90
54930;DHT22;40833;53.238;6.576;2023-02-27T12:14:51;7.30;99.90
54930;DHT22;40833;53.238;6.576;2023-02-27T12:17:31;7.40;99.90
54930;DHT22;40833;53.238;6.576;2023-02-27T12:20:33;7.40;99.90
54930;DHT22;40833;53.238;6.576;2023-02-27T12:23:01;7.40;99.90
54930;DHT22;40833;53.238;6.576;2023-02-27T12:25:45;8.10;99.90
54930;DHT22;40833;53.238;6.576;2023-02-27T12:28:46;7.70;99.90
54930;DHT22;40833;53.238;6.576;2023-02-27T12:34:05;7.70;99.90
54930;DHT22;40833;53.238;6.576;2023-02-27T12:36:35;7.60;99.90
54930;DHT22;40833;53.238;6.576;2023-02-27T12:39:01;7.90;99.90
54930;DHT22;40833;53.238;6.576;2023-02-27T12:41:33;7.50;99.90
54930;DHT22;40833;53.238;6.576;2023-02-27T12:47:09;7.50;99.90
54930;DHT22;40833;53.238;6.576;2023-02-27T12:49:58;7.60;99.90
54930;DHT22;40833;53.238;6.576;2023-02-27T12:55:11;7.60;99.90
54930;DHT22;40833;53.238;6.576;2023-02-27T12:58:12;7.50;99.90
54930;DHT22;40833;53.238;6.576;2023-02-27T13:03:24;7.30;99.90
54930;DHT22;40833;53.238;6.576;2023-02-27T13:06:20;7.20;99.90
54930;DHT22;40833;53.238;6.576;2023-02-27T13:19:58;7.30;99.90
54930;DHT22;40833;53.238;6.576;2023-02-27T13:22:52;7.70;99.90
54930;DHT22;40833;53.238;6.576;2023-02-27T13:25:23;7.50;99.90
54930;DHT22;40833;53.238;6.576;2023-02-27T13:28:03;7.50;99.90
54930;DHT22;40833;53.238;6.576;2023-02-27T13:33:31;7.60;99.90
54930;DHT22;40833;53.238;6.576;2023-02-27T13:38:54;7.70;99.90
54930;DHT22;40833;53.238;6.576;2023-02-27T13:46:40;7.80;99.90
54930;DHT22;40833;53.238;6.576;2023-02-27T13:54:17;7.90;99.90
54930;DHT22;40833;53.238;6.576;2023-02-27T13:57:23;8.00;99.90
54930;DHT22;40833;53.238;6.576;2023-02-27T13:59:54;8.40;99.90
54930;DHT22;40833;53.238;6.576;2023-02-27T14:02:51;8.70;99.90
54930;DHT22;40833;53.238;6.576;2023-02-27T14:05:26;9.00;99.90
54930;DHT22;40833;53.238;6.576;2023-02-27T14:08:05;9.20;99.90
54930;DHT22;40833;53.238;6.576;2023-02-27T14:10:35;9.20;99.90
54930;DHT22;40833;53.238;6.576;2023-02-27T14:13:01;9.30;99.90
54930;DHT22;40833;53.238;6.576;2023-02-27T14:17:58;9.20;99.90
54930;DHT22;40833;53.238;6.576;2023-02-27T14:25:51;9.20;99.90
54930;DHT22;40833;53.238;6.576;2023-02-27T14:28:24;9.20;99.90
54930;DHT22;40833;53.238;6.576;2023-02-27T14:31:03;9.60;99.90
54930;DHT22;40833;53.238;6.576;2023-02-27T14:33:41;9.50;99.90
54930;DHT22;40833;53.238;6.576;2023-02-27T14:36:23;9.60;99.90
54930;DHT22;40833;53.238;6.576;2023-02-27T14:38:55;9.60;99.90
54930;DHT22;40833;53.238;6.576;2023-02-27T14:44:03;10.00;99.90
54930;DHT22;40833;53.238;6.576;2023-02-27T14:46:37;9.70;99.90
54930;DHT22;40833;53.238;6.576;2023-02-27T14:49:19;9.40;99.90
54930;DHT22;40833;53.238;6.576;2023-02-27T14:51:45;9.10;99.90
54930;DHT22;40833;53.238;6.576;2023-02-27T14:54:15;8.80;99.90
54930;DHT22;40833;53.238;6.576;2023-02-27T14:57:03;8.80;99.90
54930;DHT22;40833;53.238;6.576;2023-02-27T15:01:58;9.10;99.90
54930;DHT22;40833;53.238;6.576;2023-02-27T15:04:28;9.00;99.90
54930;DHT22;40833;53.238;6.576;2023-02-27T15:06:55;8.90;99.90
54930;DHT22;40833;53.238;6.576;2023-02-27T15:09:40;8.80;99.90
54930;DHT22;40833;53.238;6.576;2023-02-27T15:12:09;8.70;99.90
54930;DHT22;40833;53.238;6.576;2023-02-27T15:14:37;8.70;99.90
54930;DHT22;40833;53.238;6.576;2023-02-27T15:17:17;8.70;99.90
54930;DHT22;40833;53.238;6.576;2023-02-27T15:19:52;8.70;99.90
54930;DHT22;40833;53.238;6.576;2023-02-27T15:22:24;8.60;99.90
54930;DHT22;40833;53.238;6.576;2023-02-27T15:24:53;8.60;99.90
54930;DHT22;40833;53.238;6.576;2023-02-27T15:27:22;9.00;99.90
54930;DHT22;40833;53.238;6.576;2023-02-27T15:29:54;8.40;99.90
54930;DHT22;40833;53.238;6.576;2023-02-27T15:32:35;8.20;99.90
54930;DHT22;40833;53.238;6.576;2023-02-27T15:35:20;8.10;99.90
54930;DHT22;40833;53.238;6.576;2023-02-27T15:37:57;7.90;99.90
54930;DHT22;40833;53.238;6.576;2023-02-27T15:40:28;7.50;99.90
54930;DHT22;40833;53.238;6.576;2023-02-27T15:42:55;7.70;99.90
54930;DHT22;40833;53.238;6.576;2023-02-27T15:45:26;7.50;99.90
54930;DHT22;40833;53.238;6.576;2023-02-27T15:47:52;7.50;99.90
54930;DHT22;40833;53.238;6.576;2023-02-27T15:50:32;7.40;99.90
54930;DHT22;40833;53.238;6.576;2023-02-27T15:55:37;7.30;99.90
54930;DHT22;40833;53.238;6.576;2023-02-27T15:58:23;7.40;99.90
54930;DHT22;40833;53.238;6.576;2023-02-27T16:01:06;7.10;99.90
54930;DHT22;40833;53.238;6.576;2023-02-27T16:03:36;7.10;99.90
54930;DHT22;40833;53.238;6.576;2023-02-27T16:06:27;7.00;99.90
54930;DHT22;40833;53.238;6.576;2023-02-27T16:11:23;6.90;99.90
54930;DHT22;40833;53.238;6.576;2023-02-27T16:13:50;6.90;99.90
54930;DHT22;40833;53.238;6.576;2023-02-27T16:16:35;8.10;99.90
54930;DHT22;40833;53.238;6.576;2023-02-27T16:19:26;6.80;99.90
54930;DHT22;40833;53.238;6.576;2023-02-27T16:22:10;6.70;99.90
54930;DHT22;40833;53.238;6.576;2023-02-27T16:24:37;6.70;99.90
54930;DHT22;40833;53.238;6.576;2023-02-27T16:27:03;6.60;99.90
54930;DHT22;40833;53.238;6.576;2023-02-27T16:29:38;6.60;99.90
54930;DHT22;40833;53.238;6.576;2023-02-27T16:34:46;6.50;99.90
54930;DHT22;40833;53.238;6.576;2023-02-27T16:37:25;6.40;99.90
54930;DHT22;40833;53.238;6.576;2023-02-27T16:39:53;7.00;99.90
54930;DHT22;40833;53.238;6.576;2023-02-27T16:42:19;6.30;99.90
54930;DHT22;40833;53.238;6.576;2023-02-27T16:44:45;6.30;99.90
54930;DHT22;40833;53.238;6.576;2023-02-27T16:47:11;6.20;99.90
54930;DHT22;40833;53.238;6.576;2023-02-27T16:49:37;6.10;99.90
54930;DHT22;40833;53.238;6.576;2023-02-27T16:52:07;8.40;99.90
54930;DHT22;40833;53.238;6.576;2023-02-27T16:54:33;6.00;99.90
54930;DHT22;40833;53.238;6.576;2023-02-27T16:56:59;5.90;99.90
54930;DHT22;40833;53.238;6.576;2023-02-27T17:01:56;5.80;99.90
54930;DHT22;40833;53.238;6.576;2023-02-27T17:04:23;5.70;99.90
54930;DHT22;40833;53.238;6.576;2023-02-27T17:06:49;5.70;99.90
54930;DHT22;40833;53.238;6.576;2023-02-27T17:09:15;5.60;99.90
54930;DHT22;40833;53.238;6.576;2023-02-27T17:11:41;6.10;99.90
54930;DHT22;40833;53.238;6.576;2023-02-27T17:14:07;5.50;99.90
54930;DHT22;40833;53.238;6.576;2023-02-27T17:16:32;5.50;99.90
54930;DHT22;40833;53.238;6.576;2023-02-27T17:18:58;5.50;99.90
54930;DHT22;40833;53.238;6.576;2023-02-27T17:21:24;5.40;99.90
54930;DHT22;40833;53.238;6.576;2023-02-27T17:23:49;5.80;99.90
54930;DHT22;40833;53.238;6.576;2023-02-27T17:26:15;5.40;99.90
54930;DHT22;40833;53.238;6.576;2023-02-27T17:28:41;5.30;99.90
54930;DHT22;40833;53.238;6.576;2023-02-27T17:31:08;5.20;99.90
54930;DHT22;40833;53.238;6.576;2023-02-27T17:33:34;5.30;99.90
54930;DHT22;40833;53.238;6.576;2023-02-27T17:36:01;5.20;99.90
54930;DHT22;40833;53.238;6.576;2023-02-27T17:38:27;5.20;99.90
54930;DHT22;40833;53.238;6.576;2023-02-27T17:40:53;5.20;99.90
54930;DHT22;40833;53.238;6.576;2023-02-27T17:43:18;6.00;99.90
54930;DHT22;40833;53.238;6.576;2023-02-27T17:45:44;5.10;99.90
54930;DHT22;40833;53.238;6.576;2023-02-27T17:48:10;5.10;99.90
54930;DHT22;40833;53.238;6.576;2023-02-27T17:50:37;5.10;99.90
54930;DHT22;40833;53.238;6.576;2023-02-27T17:53:03;5.10;99.90
54930;DHT22;40833;53.238;6.576;2023-02-27T17:55:28;6.20;99.90
54930;DHT22;40833;53.238;6.576;2023-02-27T17:57:54;5.00;99.90
54930;DHT22;40833;53.238;6.576;2023-02-27T18:00:20;5.40;99.90
54930;DHT22;40833;53.238;6.576;2023-02-27T18:02:46;5.00;99.90
54930;DHT22;40833;53.238;6.576;2023-02-27T18:05:12;6.70;99.90
54930;DHT22;40833;53.238;6.576;2023-02-27T18:07:39;4.90;99.90
54930;DHT22;40833;53.238;6.576;2023-02-27T18:10:06;5.80;99.90
54930;DHT22;40833;53.238;6.576;2023-02-27T18:12:34;4.80;99.90
54930;DHT22;40833;53.238;6.576;2023-02-27T18:15:01;5.20;99.90
54930;DHT22;40833;53.238;6.576;2023-02-27T18:17:27;4.80;99.90
54930;DHT22;40833;53.238;6.576;2023-02-27T18:19:52;4.80;99.90
54930;DHT22;40833;53.238;6.576;2023-02-27T18:22:19;4.70;99.90
54930;DHT22;40833;53.238;6.576;2023-02-27T18:24:46;4.70;99.90
54930;DHT22;40833;53.238;6.576;2023-02-27T18:27:12;4.70;99.90
54930;DHT22;40833;53.238;6.576;2023-02-27T18:29:38;4.60;99.90
54930;DHT22;40833;53.238;6.576;2023-02-27T18:32:06;4.60;99.90
54930;DHT22;40833;53.238;6.576;2023-02-27T18:34:32;7.10;99.90